Terminal Aerodrome Forecast
Issued by NWS

Home | Current Version | Previous Version | Text Only | Print | Product List | Glossary On
Versions: 1 2 3 4 5 6 7 8 9 10 11 12 13 14 15 16 17 18 19 20 21 22
000
FTUS43 KDTX 251334 AAA
TAFDET
TAF AMD
KDET 251334Z 2514/2612 25013G20KT P6SM OVC025
     FM252300 22010KT P6SM SCT025 BKN035
     FM260400 20006KT P6SM SCT035=

USA.gov is the U.S. government's official web portal to all federal, state and local government web resources and services.